Airfield :
LOGIN :

Register | Disclaimer

   EN    FR    IT 

 










Legend :    VFR   Marginal VFR   IFR   Intensive IFR   Very Intensive IFR
Visi :
Ceiling :
>= 8 km
>= 3000ft
5 to 8 km
1000 to 3000 ft
1500m to 5 km
500 to 1000 ft
800 to 1500m
200 to 500 ft
< 800m
< 200 ft
Symbols :   Thunderstorms  Fog  Heavy snow  Heavy precipitations  Wind > 20 kt
SIGMETs :     Misc.  Thunderstorms  Icing  Turbulence  Mountain Waves  Volcanic Ashes






- Airport Elevation : 299 ft
- IATA code : EDM


LFRI - La Roche Sur Yon - Les Ajoncs

CURRENT METAR :
  • 021130Z AUTO 36004KT 280V060 CAVOK 24/11 Q1020 NOSIG

EXPIRED METARs :
  • 021100Z AUTO VRB04KT CAVOK 23/09 Q1020 NOSIG
  • 021030Z AUTO 15004KT 090V220 CAVOK 23/10 Q1020 NOSIG
  • 021000Z AUTO VRB03KT CAVOK 23/10 Q1020 NOSIG
  • 020930Z AUTO VRB04KT CAVOK 23/10 Q1020 NOSIG
  • 020900Z AUTO 16004KT 110V210 CAVOK 22/11 Q1020 NOSIG

TAF TAF LFRI
Valid from the 02 at 12:00 until the 03 at 12:00 UTC


021100Z 0212/0312 VRB04KT CAVOK
BECMG 0212/0215 30010KT
BECMG 0302/0304 36006KT



MET'MAP, your aeronautical weather chart ! - Copyright ORBIFLY December 2007 - Disclaimer

ORBIFLY MET'MAP TEAM :

Programming & Development : Alexandra Zaïnal
Original concept : Baudouin d'Aumeries
Technical & hardware support : Manuel Goepfert
Assistance : Marc-Olivier Méhu




SOURCES & CREDITS :

   NOAA